Time;durP1;ratioP1;P1;durP2;ratioP2;P2;SDS_P1;SDS_P2;PMS_P1;PMS_P2;Temp;Humidity;BMP_temperature;BMP_pressure;BME280_temperature;BME280_humidity;BME280_pressure;Samples;Min_cycle;Max_cycle;Signal;HPM_P1;HPM_P2
2024/04/12 10:38:54;;;;;;;19.85;12.05;;;;;;;17.75;74.91;101184.84;5313708;27;20010;-86
2024/04/12 10:41:28;;;;;;;17.02;11.50;;;;;;;17.82;74.40;101187.97;5313624;27;20480;-87
2024/04/12 10:43:55;;;;;;;17.20;11.90;;;;;;;17.89;74.69;101193.75;5313935;27;20002;-87
2024/04/12 10:46:23;;;;;;;15.52;11.18;;;;;;;17.96;74.23;101187.06;5283898;27;20005;-86
2024/04/12 10:48:49;;;;;;;15.70;11.70;;;;;;;18.03;73.91;101184.84;5283634;27;20001;-87
2024/04/12 10:51:19;;;;;;;17.90;11.68;;;;;;;18.06;73.59;101200.66;5313301;27;20437;-87
2024/04/12 10:53:51;;;;;;;13.60;11.35;;;;;;;18.14;72.96;101181.50;5313617;27;20032;-87
2024/04/12 10:56:20;;;;;;;16.60;11.73;;;;;;;18.19;72.54;101200.69;5283419;27;20037;-87
2024/04/12 10:58:51;;;;;;;18.83;11.93;;;;;;;18.24;72.81;101182.59;5313381;27;20002;-87
2024/04/12 11:01:31;;;;;;;18.35;11.13;;;;;;;18.22;71.23;101180.06;5311420;27;20005;-87
2024/04/12 11:03:58;;;;;;;15.95;11.95;;;;;;;18.28;72.35;101175.25;5283574;27;20002;-87
2024/04/12 11:06:31;;;;;;;19.80;11.15;;;;;;;18.32;73.33;101179.44;5313172;27;20009;-87
2024/04/12 11:09:13;;;;;;;17.88;10.93;;;;;;;18.34;71.82;101189.03;5283341;27;19998;-87
2024/04/12 11:11:43;;;;;;;14.07;11.13;;;;;;;18.44;72.34;101188.41;5313003;27;20013;-87
2024/04/12 11:14:18;;;;;;;16.55;11.05;;;;;;;18.51;72.16;101183.50;5313375;27;20009;-87
2024/04/12 11:31:15;;;;;;;19.42;10.57;;;;;;;19.41;70.97;101161.31;5312848;27;20006;-87
2024/04/12 11:33:53;;;;;;;17.38;10.80;;;;;;;19.50;67.46;101135.75;5313052;27;20008;-87
2024/04/12 11:36:39;;;;;;;12.18;10.07;;;;;;;19.68;70.56;101138.88;5312930;27;20291;-87
2024/04/12 11:39:26;;;;;;;12.20;9.52;;;;;;;19.78;69.69;101125.72;5310739;27;20005;-87
2024/04/12 11:41:56;;;;;;;17.92;10.20;;;;;;;19.87;69.30;101141.06;5283068;27;20001;-87
2024/04/12 11:44:23;;;;;;;15.15;9.90;;;;;;;19.96;69.06;101139.50;5282549;27;20397;-86
2024/04/12 11:46:54;;;;;;;12.13;9.38;;;;;;;20.01;68.82;101136.53;5312488;27;20017;-86
2024/04/12 11:49:25;;;;;;;14.18;9.20;;;;;;;20.08;68.87;101148.47;5312196;27;20010;-86
2024/04/12 11:52:01;;;;;;;12.80;9.63;;;;;;;20.09;66.01;101155.50;5283082;27;20008;-86
2024/04/12 11:54:30;;;;;;;13.65;9.93;;;;;;;20.17;67.29;101158.47;5312481;27;20002;-86
2024/04/12 11:57:00;;;;;;;16.95;9.45;;;;;;;20.27;68.28;101157.75;5312409;27;20017;-86
2024/04/12 11:59:30;;;;;;;13.55;9.60;;;;;;;20.28;65.88;101149.63;5282292;27;20019;-86
2024/04/12 12:02:01;;;;;;;15.20;9.43;;;;;;;20.29;63.16;101193.25;5282538;27;20016;-86
2024/04/12 12:04:36;;;;;;;13.48;8.82;;;;;;;20.34;65.39;101152.78;5312478;27;20016;-86
2024/04/12 12:07:04;;;;;;;12.43;8.68;;;;;;;20.43;66.29;101154.75;5282650;27;20075;-86
2024/04/12 12:09:36;;;;;;;12.35;9.25;;;;;;;20.49;66.01;101166.81;5282969;27;20001;-86
2024/04/12 12:12:16;;;;;;;15.57;9.77;;;;;;;20.52;64.52;101145.19;5311587;27;20002;-87
2024/04/12 12:14:43;;;;;;;13.05;8.70;;;;;;;20.60;63.98;101152.63;5311727;27;20335;-86
2024/04/12 12:17:18;;;;;;;14.90;9.30;;;;;;;20.69;64.57;101146.53;5282381;27;20520;-88
2024/04/12 12:19:47;;;;;;;11.68;8.18;;;;;;;20.81;64.76;101152.75;5282276;27;20445;-87
2024/04/12 12:22:18;;;;;;;11.93;8.50;;;;;;;20.89;64.01;101158.38;5282158;27;20525;-87
2024/04/12 12:24:45;;;;;;;12.23;8.40;;;;;;;21.00;64.88;101121.91;5312588;27;19997;-86
2024/04/12 12:27:12;;;;;;;11.25;7.97;;;;;;;21.11;64.38;101129.09;5312203;27;20005;-87
2024/04/12 12:29:51;;;;;;;12.50;8.52;;;;;;;21.17;61.21;101129.44;5312135;27;20342;-87
2024/04/12 12:32:19;;;;;;;13.75;8.18;;;;;;;21.30;63.71;101117.75;5312068;27;20009;-87
2024/04/12 12:34:47;;;;;;;14.25;7.85;;;;;;;21.39;62.37;101118.81;5310202;27;20688;-87
2024/04/12 12:37:34;;;;;;;13.38;7.82;;;;;;;21.45;60.72;101123.66;5312418;27;20002;-87
2024/04/12 12:40:01;;;;;;;13.48;8.18;;;;;;;21.61;62.74;101120.59;5311953;27;19998;-87
2024/04/12 12:42:31;;;;;;;14.25;8.40;;;;;;;21.74;61.82;101115.94;5310372;27;20002;-87
2024/04/12 12:45:05;;;;;;;10.60;7.45;;;;;;;21.87;57.46;101109.56;5311953;27;20401;-87
2024/04/12 12:47:32;;;;;;;16.30;8.40;;;;;;;22.01;60.12;101127.16;5281704;27;20002;-87
2024/04/12 12:50:03;;;;;;;10.82;8.07;;;;;;;22.15;56.73;101117.94;5281715;27;20013;-87
2024/04/12 12:52:32;;;;;;;16.13;8.30;;;;;;;22.28;58.95;101106.19;5311689;27;20001;-87
2024/04/12 12:55:00;;;;;;;12.27;7.15;;;;;;;22.41;59.30;101098.78;5282060;27;20016;-87
2024/04/12 12:57:38;;;;;;;10.55;7.22;;;;;;;22.58;59.75;101112.59;5311577;27;20075;-87
2024/04/12 13:00:06;;;;;;;9.88;7.07;;;;;;;22.70;56.88;101095.44;5281797;27;20012;-87
2024/04/12 13:02:38;;;;;;;11.13;6.72;;;;;;;22.84;57.94;101099.56;5311809;27;20001;-87
2024/04/12 13:05:06;;;;;;;12.88;6.80;;;;;;;22.95;57.68;101104.00;5281683;27;20072;-87
2024/04/12 13:07:32;;;;;;;10.05;6.53;;;;;;;23.05;57.67;101101.34;5311815;27;20001;-87
2024/04/12 13:09:59;;;;;;;10.63;7.03;;;;;;;23.13;57.27;101089.91;5311258;27;20016;-87
2024/04/12 13:12:28;;;;;;;11.93;7.38;;;;;;;23.16;56.28;101087.81;5281482;27;20017;-87
2024/04/12 13:14:57;;;;;;;12.38;7.63;;;;;;;23.13;54.85;101103.34;5312130;27;20012;-87
2024/04/12 13:17:25;;;;;;;10.32;7.25;;;;;;;23.01;54.18;101108.84;5311619;27;20008;-87
2024/04/12 13:19:52;;;;;;;8.40;6.72;;;;;;;22.93;54.21;101084.50;5311255;27;20077;-87
2024/04/12 13:22:27;;;;;;;14.60;7.60;;;;;;;22.72;52.41;101085.41;5281616;27;19997;-87
2024/04/12 13:24:53;;;;;;;13.13;7.68;;;;;;;22.65;53.54;101085.09;5313202;27;20013;-87
2024/04/12 13:27:23;;;;;;;12.18;6.93;;;;;;;22.52;52.86;101079.94;5315043;27;19997;-87
2024/04/12 13:29:55;;;;;;;10.75;7.05;;;;;;;22.44;51.13;101095.84;5314934;27;20021;-87
2024/04/12 13:32:21;;;;;;;12.15;7.38;;;;;;;22.40;54.50;101081.00;5313240;27;20359;-87
2024/04/12 13:34:48;;;;;;;11.90;7.68;;;;;;;22.39;54.99;101068.56;5314825;27;20401;-87
2024/04/12 13:37:21;;;;;;;9.68;7.05;;;;;;;22.41;53.98;101101.47;5284801;27;20079;-87
2024/04/12 13:39:48;;;;;;;;;;;;;;;22.43;53.72;101069.13;5315189;27;20006;-87
2024/04/12 13:42:15;;;;;;;11.65;6.95;;;;;;;22.56;55.67;101063.56;5284841;27;20355;-87
2024/04/12 13:51:04;;;;;;;9.20;6.50;;;;;;;22.72;55.88;101061.25;5210504;27;20032;-87
2024/04/12 13:53:36;;;;;;;11.27;6.63;;;;;;;22.80;54.98;101057.88;5183254;27;20449;-87
2024/04/12 13:56:20;;;;;;;11.98;6.60;;;;;;;22.93;53.24;101063.00;5210352;27;20420;-87
2024/04/12 13:59:10;;;;;;;12.43;7.20;;;;;;;23.03;50.80;101049.63;5183596;27;20007;-87
2024/04/12 14:01:45;;;;;;;11.35;6.82;;;;;;;23.20;52.48;101036.47;5226349;27;20006;-87
2024/04/12 14:04:18;;;;;;;11.00;6.00;;;;;;;23.38;54.36;101040.25;5314190;27;20012;-87
2024/04/12 14:06:46;;;;;;;;;;;;;;;23.58;52.93;101042.09;5314886;27;20001;-87
2024/04/12 14:09:21;;;;;;;8.90;5.97;;;;;;;23.95;55.31;101030.56;5284603;27;19926;-87
2024/04/12 14:12:05;;;;;;;9.65;6.65;;;;;;;24.32;53.94;101037.03;5290148;27;20137;-87
2024/04/12 14:14:32;;;;;;;9.95;6.03;;;;;;;24.59;53.53;101038.03;5312615;27;20030;-87
2024/04/12 14:17:05;;;;;;;9.00;6.30;;;;;;;24.71;48.73;101028.78;5314483;27;20017;-87
2024/04/12 14:19:31;;;;;;;9.95;6.18;;;;;;;24.85;52.37;101019.41;5313998;27;20026;-87
2024/04/12 14:21:58;;;;;;;9.10;6.72;;;;;;;24.95;51.99;101013.09;5312718;27;19994;-86
2024/04/12 14:27:11;;;;;;;11.23;6.72;;;;;;;25.23;51.54;101023.84;5313857;27;20097;-87
2024/04/12 14:29:39;;;;;;;8.18;5.95;;;;;;;25.42;50.96;101020.13;5283666;27;20002;-87
2024/04/12 14:32:09;;;;;;;9.65;6.22;;;;;;;25.63;50.64;101008.19;5311361;27;20002;-87
2024/04/12 14:34:39;;;;;;;9.85;6.57;;;;;;;25.80;49.05;101009.19;5312972;27;20056;-87
2024/04/12 14:37:07;;;;;;;8.27;6.60;;;;;;;25.82;47.55;100998.25;5312464;27;20838;-87
2024/04/12 14:39:42;;;;;;;9.10;6.60;;;;;;;25.72;46.81;100985.69;5312737;27;20002;-87
2024/04/12 14:42:15;;;;;;;14.20;6.30;;;;;;;25.75;48.87;100987.22;5281049;27;20076;-87
2024/04/12 14:44:43;;;;;;;7.93;5.40;;;;;;;25.81;49.92;100978.50;5310883;27;20455;-88
2024/04/12 14:47:13;;;;;;;8.55;5.28;;;;;;;25.99;50.52;100989.25;5283391;27;20006;-86
2024/04/12 14:49:41;;;;;;;9.30;5.47;;;;;;;26.27;49.75;100983.69;5313085;27;20060;-91
2024/04/12 14:52:11;;;;;;;7.95;5.18;;;;;;;26.61;48.75;101000.88;5283987;27;20453;-88
2024/04/12 14:54:39;;;;;;;9.65;5.10;;;;;;;26.88;48.00;100982.72;5313489;27;20477;-88
2024/04/12 14:57:09;;;;;;;5.95;4.43;;;;;;;27.17;47.86;100972.50;5313718;27;20005;-89
2024/04/12 14:59:42;;;;;;;7.25;4.65;;;;;;;27.39;44.22;100979.09;5313290;27;20038;-89
2024/04/12 15:02:12;;;;;;;7.32;5.18;;;;;;;27.61;44.03;100968.63;5313209;27;20020;-91
2024/04/12 15:53:18;;;;;;;10.00;4.07;;;;;;;23.88;46.70;100963.06;5313104;27;20006;-89
2024/04/12 16:11:11;;;;;;;11.82;4.80;;;;;;;23.12;48.79;100943.19;5315165;27;20083;-88
2024/04/12 16:13:38;;;;;;;9.25;4.50;;;;;;;23.09;49.67;100952.38;5282778;27;20034;-88
2024/04/12 16:16:05;;;;;;;9.07;4.60;;;;;;;23.08;49.74;100952.50;5282572;27;20017;-88
2024/04/12 16:18:44;;;;;;;9.05;4.63;;;;;;;23.02;49.87;100948.53;5282653;27;20013;-88
2024/04/12 16:21:11;;;;;;;9.55;4.30;;;;;;;23.09;50.41;100936.28;5300324;27;20006;-88
2024/04/12 16:23:38;;;;;;;7.13;4.18;;;;;;;23.11;50.46;100937.00;5312078;27;19997;-88
2024/04/12 16:26:07;;;;;;;7.93;4.47;;;;;;;23.12;50.32;100943.19;5312789;27;20017;-88
2024/04/12 16:28:35;;;;;;;6.88;4.60;;;;;;;23.11;50.22;100936.13;5312346;27;20013;-88
2024/04/12 16:31:02;;;;;;;6.55;4.28;;;;;;;23.08;50.06;100944.47;5312287;27;20005;-88
2024/04/12 16:33:32;;;;;;;8.05;4.70;;;;;;;23.02;50.03;100921.69;5283258;27;20017;-88
2024/04/12 16:36:10;;;;;;;9.82;4.82;;;;;;;22.91;49.80;100928.03;5312271;27;20497;-88
2024/04/12 16:38:37;;;;;;;8.35;4.72;;;;;;;22.86;50.36;100920.44;5282712;27;20084;-88
2024/04/12 16:41:04;;;;;;;8.95;4.45;;;;;;;22.77;50.44;100930.16;5282102;27;20005;-88
2024/04/12 16:43:39;;;;;;;8.75;4.82;;;;;;;22.59;49.12;100932.69;5312343;27;20024;-88
2024/04/12 16:46:06;;;;;;;9.77;4.90;;;;;;;22.49;50.27;100926.41;5282416;27;20341;-88
2024/04/12 16:48:32;;;;;;;9.68;5.15;;;;;;;22.38;50.59;100919.31;5312305;27;20017;-88
2024/04/12 16:51:01;;;;;;;6.85;4.40;;;;;;;22.30;50.85;100929.88;5311924;27;20010;-88
2024/04/12 16:53:31;;;;;;;8.88;4.72;;;;;;;22.23;51.74;100924.19;5282118;27;20014;-88
2024/04/12 16:55:58;;;;;;;9.00;4.63;;;;;;;22.16;51.79;100921.19;5282077;27;20010;-88
2024/04/12 16:58:25;;;;;;;7.35;4.25;;;;;;;22.12;52.04;100914.41;5312387;27;20006;-87
2024/04/12 17:00:52;;;;;;;6.20;4.25;;;;;;;22.06;51.84;100909.59;5314885;27;20047;-87
2024/04/12 17:03:36;;;;;;;6.82;4.10;;;;;;;22.02;51.75;100916.22;5315559;27;20327;-87
2024/04/12 17:06:03;;;;;;;6.22;3.90;;;;;;;22.03;51.85;100925.94;5285504;27;20450;-87
2024/04/12 17:11:07;;;;;;;6.30;3.70;;;;;;;21.99;52.32;100904.75;5361883;22;20044;-87
2024/04/12 17:13:33;;;;;;;6.05;3.95;;;;;;;21.98;52.04;100899.56;5348925;26;20015;-87
2024/04/12 17:16:03;;;;;;;9.50;4.05;;;;;;;21.95;52.27;100902.50;5349129;26;20450;-87
2024/04/12 17:18:45;;;;;;;6.72;4.13;;;;;;;21.84;52.16;100896.25;5348577;26;20448;-87
2024/04/12 17:21:12;;;;;;;6.75;3.97;;;;;;;21.84;52.52;100895.38;5318428;26;20008;-87
2024/04/12 17:23:39;;;;;;;6.55;4.13;;;;;;;21.79;52.39;100897.63;5318456;26;20075;-87
2024/04/12 17:26:07;;;;;;;10.02;4.47;;;;;;;21.69;52.11;100887.69;5318615;26;20009;-87
2024/04/12 17:28:33;;;;;;;7.18;4.05;;;;;;;21.62;52.48;100891.84;5348766;26;20471;-87
2024/04/12 17:31:01;;;;;;;6.30;3.60;;;;;;;21.54;53.16;100899.72;5348741;26;20009;-87
2024/04/12 17:33:29;;;;;;;6.43;3.72;;;;;;;21.44;53.16;100900.50;5318483;26;20001;-87
2024/04/12 17:35:57;;;;;;;5.85;4.30;;;;;;;21.37;53.54;100903.84;5348557;26;20460;-87
2024/04/12 17:38:25;;;;;;;8.07;4.13;;;;;;;21.29;53.66;100905.31;5312770;27;20006;-87
2024/04/12 17:40:52;;;;;;;6.47;4.22;;;;;;;21.21;53.58;100900.63;5313924;26;20082;-88
2024/04/12 17:43:21;;;;;;;6.65;4.18;;;;;;;21.12;53.65;100898.69;5318275;26;20005;-87
2024/04/12 17:45:54;;;;;;;7.53;4.35;;;;;;;21.01;53.67;100898.75;5349084;26;20001;-87
2024/04/12 17:48:21;;;;;;;;;;;;;;;20.94;53.61;100893.06;5312880;27;20002;-87
2024/04/12 17:50:55;;;;;;;6.68;3.42;;;;;;;20.92;53.89;100898.53;5342789;26;20329;-87
2024/04/12 17:53:24;;;;;;;6.95;4.22;;;;;;;20.86;54.40;100896.31;5348394;26;20333;-87
2024/04/12 17:55:56;;;;;;;8.98;4.30;;;;;;;20.78;54.73;100890.78;5347957;26;20078;-89
2024/04/12 17:58:26;;;;;;;8.27;4.55;;;;;;;20.74;54.82;100894.69;5348449;26;20005;-87
2024/04/12 18:01:03;;;;;;;6.65;4.20;;;;;;;20.64;55.16;100895.41;5317508;26;20015;-87
2024/04/12 18:03:33;;;;;;;7.53;3.95;;;;;;;20.61;55.36;100897.50;5318192;26;20009;-87
2024/04/12 18:06:01;;;;;;;5.82;3.83;;;;;;;20.59;55.40;100889.59;5348142;26;20001;-87
2024/04/12 18:08:28;;;;;;;7.68;4.72;;;;;;;20.54;55.42;100897.16;5317908;26;20019;-87
2024/04/12 18:11:08;;;;;;;6.05;4.30;;;;;;;20.46;55.73;100888.91;5316296;26;20078;-87
2024/04/12 18:13:35;;;;;;;8.93;4.85;;;;;;;20.45;55.51;100896.09;5312198;27;20013;-88
2024/04/12 18:16:05;;;;;;;7.43;4.80;;;;;;;20.35;55.89;100895.97;5345604;26;20004;-86
2024/04/12 18:18:32;;;;;;;9.50;4.93;;;;;;;20.33;56.20;100900.59;5348539;26;20317;-87
2024/04/12 18:21:11;;;;;;;7.82;4.40;;;;;;;20.27;56.10;100893.94;5343056;26;20449;-88
2024/04/12 18:23:38;;;;;;;9.68;4.80;;;;;;;20.25;56.11;100897.69;5348200;26;20008;-88
2024/04/12 18:26:07;;;;;;;7.15;4.22;;;;;;;20.23;56.22;100896.97;5347793;26;20005;-87
2024/04/12 18:28:35;;;;;;;7.97;4.50;;;;;;;20.18;56.34;100900.00;5348079;26;20020;-87
2024/04/12 18:31:06;;;;;;;6.38;4.00;;;;;;;20.14;56.19;100894.03;5317220;26;20013;-87
2024/04/12 18:33:33;;;;;;;7.05;3.33;;;;;;;20.12;56.35;100901.34;5317659;26;20005;-87
2024/04/12 18:36:11;;;;;;;6.72;3.83;;;;;;;20.11;56.08;100904.13;5347627;26;20005;-87
2024/04/12 18:48:03;;;;;;;4.78;3.90;;;;;;;20.04;56.30;100901.09;5217163;27;20074;-95
2024/04/12 18:54:18;;;;;;;5.78;3.47;;;;;;;19.95;56.62;100907.97;5190540;27;20472;-95
2024/04/12 19:00:34;;;;;;;8.02;3.50;;;;;;;19.85;56.83;100923.88;5206631;27;20395;-90
2024/04/12 19:12:14;;;;;;;6.97;3.30;;;;;;;19.71;57.22;100911.63;5892202;21;20013;-87
2024/04/12 19:14:44;;;;;;;6.22;3.40;;;;;;;19.69;57.14;100905.53;5283110;27;20049;-87
2024/04/12 19:17:21;;;;;;;;;;;;;;;;;;;;;
2024/04/12 19:19:50;;;;;;;6.55;3.20;;;;;;;19.66;57.23;100911.94;5312488;27;20447;-87
2024/04/12 19:22:17;;;;;;;5.25;3.35;;;;;;;19.63;57.12;100909.50;5282790;27;20421;-87
2024/04/12 19:24:44;;;;;;;7.40;3.20;;;;;;;19.62;57.18;100909.66;5282161;27;20084;-87
2024/04/12 19:27:21;;;;;;;5.93;2.60;;;;;;;19.59;57.14;100902.72;5282998;27;20471;-87
2024/04/12 19:29:48;;;;;;;6.43;3.13;;;;;;;19.57;57.09;100904.66;5282765;27;20009;-87
2024/04/12 19:32:16;;;;;;;5.72;2.95;;;;;;;19.56;57.57;100912.78;5312520;27;20001;-87
2024/04/12 19:34:43;;;;;;;7.38;3.40;;;;;;;19.54;57.51;100915.56;5312598;27;20080;-87
2024/04/12 19:37:10;;;;;;;6.28;3.22;;;;;;;19.53;57.71;100920.06;5311537;27;20005;-87
2024/04/12 19:39:39;;;;;;;6.47;3.33;;;;;;;19.53;57.55;100914.72;5311224;27;20005;-87
2024/04/12 19:42:07;;;;;;;5.90;2.95;;;;;;;19.54;57.62;100918.25;5309832;27;20001;-87
2024/04/12 19:44:36;;;;;;;3.58;2.80;;;;;;;19.53;57.77;100919.22;5281373;27;20444;-87
2024/04/12 19:47:05;;;;;;;5.97;3.13;;;;;;;19.53;57.63;100919.22;5297732;27;20010;-87
2024/04/12 19:49:33;;;;;;;5.07;3.25;;;;;;;19.53;57.88;100922.75;5310056;27;20005;-87
2024/04/12 19:52:01;;;;;;;6.13;3.35;;;;;;;19.53;57.99;100920.06;5282395;27;20037;-87
2024/04/12 19:54:31;;;;;;;6.03;3.13;;;;;;;19.53;57.85;100917.41;5282752;27;20432;-87
2024/04/12 19:56:59;;;;;;;5.45;3.08;;;;;;;19.53;57.78;100927.22;5311992;27;20016;-86
2024/04/12 19:59:26;;;;;;;5.65;2.83;;;;;;;19.53;57.80;100927.22;5282251;27;20005;-87
2024/04/12 20:01:53;;;;;;;5.20;2.97;;;;;;;19.52;57.69;100917.50;5282247;27;20010;-87
2024/04/12 20:04:22;;;;;;;4.72;2.85;;;;;;;19.52;57.87;100920.19;5311804;27;20407;-87
2024/04/12 20:06:51;;;;;;;5.30;2.80;;;;;;;19.51;58.06;100919.31;5281612;27;20009;-87
2024/04/12 20:09:19;;;;;;;6.70;3.15;;;;;;;19.50;57.94;100917.63;5282018;27;20006;-87
2024/04/12 20:11:47;;;;;;;4.10;2.63;;;;;;;19.49;57.71;100923.09;5310520;27;20021;-87
2024/04/12 20:14:14;;;;;;;6.68;2.88;;;;;;;19.47;57.89;100909.84;5282359;27;20347;-87
2024/04/12 20:16:41;;;;;;;7.47;3.03;;;;;;;19.46;57.72;100909.97;5282037;27;20371;-87
2024/04/12 20:19:09;;;;;;;3.65;2.55;;;;;;;19.42;57.69;100900.47;5281496;27;20016;-87
2024/04/12 20:21:38;;;;;;;10.10;3.28;;;;;;;19.40;57.61;100897.94;5281048;27;20105;-87
2024/04/12 20:24:08;;;;;;;5.18;3.10;;;;;;;19.38;57.75;100910.56;5281240;27;20016;-87
2024/04/12 20:26:40;;;;;;;5.35;2.60;;;;;;;19.35;57.92;100913.44;5282097;27;20005;-86
2024/04/12 20:29:14;;;;;;;5.57;2.80;;;;;;;19.31;57.90;100910.16;5281180;27;20001;-87
2024/04/12 20:31:51;;;;;;;5.05;3.25;;;;;;;19.25;57.76;100903.47;5311159;27;20005;-87
2024/04/12 20:37:05;;;;;;;5.85;3.17;;;;;;;19.17;57.97;100907.69;5275765;27;20034;-87
2024/04/12 20:39:35;;;;;;;6.38;3.13;;;;;;;19.12;58.30;100908.03;5309324;27;20009;-87
2024/04/12 20:42:03;;;;;;;6.32;3.03;;;;;;;19.08;58.35;100904.75;5281860;27;20006;-87
2024/04/12 20:44:33;;;;;;;6.80;2.85;;;;;;;19.03;58.66;100896.22;5317437;26;20038;-87
2024/04/12 20:47:00;;;;;;;5.25;2.92;;;;;;;19.00;58.48;100893.75;5281695;27;20053;-87
2024/04/12 20:49:28;;;;;;;7.30;2.75;;;;;;;18.96;58.63;100894.97;5281065;27;20020;-87
2024/04/12 20:52:06;;;;;;;5.25;3.17;;;;;;;18.91;58.87;100902.47;5311233;27;20016;-87
2024/04/12 20:54:37;;;;;;;3.80;2.80;;;;;;;18.86;58.35;100892.13;5298801;27;20441;-87
2024/04/12 20:57:07;;;;;;;4.72;2.90;;;;;;;18.81;58.97;100887.13;5280808;27;20006;-87
2024/04/12 20:59:36;;;;;;;4.60;3.00;;;;;;;18.74;58.91;100899.22;5279951;27;19998;-87
2024/04/12 21:02:03;;;;;;;4.15;3.38;;;;;;;18.70;59.00;100900.41;5268168;27;20005;-87
2024/04/12 21:04:30;;;;;;;5.65;3.65;;;;;;;18.66;59.35;100898.91;5281018;27;20038;-87
2024/04/12 21:07:04;;;;;;;5.43;3.17;;;;;;;18.60;59.80;100892.22;5281126;27;20013;-87
2024/04/12 21:09:54;;;;;;;8.32;4.28;;;;;;;18.57;59.63;100895.09;5308482;27;20034;-87
2024/04/12 21:12:23;;;;;;;4.70;3.25;;;;;;;18.55;59.68;100889.03;5305465;27;20017;-87
2024/04/12 21:14:50;;;;;;;6.15;3.58;;;;;;;18.51;59.66;100885.75;5278964;27;20005;-87
2024/04/12 21:17:17;;;;;;;6.32;3.90;;;;;;;18.49;59.95;100887.66;5280996;27;20013;-87
2024/04/12 21:19:44;;;;;;;5.30;3.58;;;;;;;18.44;60.00;100890.69;5280677;27;20001;-87
2024/04/12 21:22:13;;;;;;;6.10;3.72;;;;;;;18.39;60.26;100882.16;5309183;27;20021;-86
2024/04/12 21:24:43;;;;;;;8.52;4.55;;;;;;;18.38;60.29;100879.63;5281901;27;20013;-87
2024/04/12 21:27:15;;;;;;;7.28;3.95;;;;;;;18.35;60.38;100886.00;5309136;27;20460;-87
2024/04/12 21:29:45;;;;;;;;;;;;;;;18.33;60.17;100893.25;5280839;27;20351;-87
2024/04/12 21:32:12;;;;;;;7.07;3.80;;;;;;;18.35;60.21;100884.19;5280700;27;19931;-87
2024/04/12 21:34:39;;;;;;;7.03;3.22;;;;;;;18.32;60.43;100891.56;5280675;27;20079;-87
2024/04/12 21:37:06;;;;;;;7.00;3.42;;;;;;;18.27;60.72;100886.56;5281208;27;20013;-87
2024/04/12 21:39:33;;;;;;;6.85;3.85;;;;;;;18.24;61.09;100889.44;5310993;27;20010;-87
2024/04/12 21:42:00;;;;;;;9.15;3.92;;;;;;;18.22;61.10;100888.69;5280477;27;20002;-87
2024/04/12 21:44:27;;;;;;;5.00;3.63;;;;;;;18.21;61.34;100884.34;5280456;27;20010;-87
2024/04/12 21:46:53;;;;;;;7.25;3.88;;;;;;;18.20;61.05;100888.81;5283820;27;20021;-87
2024/04/12 21:49:20;;;;;;;7.00;3.60;;;;;;;18.20;61.37;100887.94;5283484;27;20046;-87
2024/04/12 21:51:47;;;;;;;6.35;3.65;;;;;;;18.19;61.17;100891.56;5284091;27;20080;-86
2024/04/12 21:54:14;;;;;;;7.18;3.33;;;;;;;18.19;61.11;100892.44;5284094;27;20037;-87
2024/04/12 21:56:42;;;;;;;7.60;4.07;;;;;;;18.17;61.09;100899.66;5284523;27;20048;-87
2024/04/12 21:59:12;;;;;;;7.38;3.83;;;;;;;18.14;61.46;100899.91;5312532;27;20017;-87
2024/04/12 22:01:39;;;;;;;5.55;3.65;;;;;;;18.15;61.50;100900.75;5283500;27;19997;-87
2024/04/12 22:04:05;;;;;;;8.23;3.85;;;;;;;18.10;61.32;100893.94;5283355;27;20005;-87
2024/04/12 22:06:32;;;;;;;5.35;3.53;;;;;;;18.08;61.60;100892.34;5284040;27;20013;-87
2024/04/12 22:08:59;;;;;;;5.75;3.95;;;;;;;18.06;61.64;100887.06;5313705;27;20006;-87
2024/04/12 22:11:28;;;;;;;6.03;3.88;;;;;;;18.02;62.04;100882.94;5311816;27;20013;-87
2024/04/12 22:13:58;;;;;;;6.03;3.88;;;;;;;17.98;61.58;100884.97;5283850;27;20415;-87
2024/04/12 22:16:24;;;;;;;8.43;3.97;;;;;;;17.96;61.96;100888.69;5283836;27;20455;-87
2024/04/12 22:18:54;;;;;;;6.10;3.70;;;;;;;17.91;62.22;100885.50;5284201;27;20020;-87
2024/04/12 22:21:21;;;;;;;7.00;3.75;;;;;;;17.88;61.71;100886.59;5283318;27;20006;-87
2024/04/12 22:23:50;;;;;;;7.80;3.90;;;;;;;17.87;62.22;100892.00;5283690;27;20009;-87
2024/04/12 22:26:21;;;;;;;5.13;3.60;;;;;;;17.87;62.35;100892.00;5283377;27;20009;-86
2024/04/12 22:28:49;;;;;;;6.22;3.22;;;;;;;17.84;62.21;100899.25;5283130;27;20009;-87
2024/04/12 22:31:18;;;;;;;8.07;4.28;;;;;;;17.82;62.47;100901.19;5283310;27;20445;-86
2024/04/12 22:33:47;;;;;;;6.03;3.53;;;;;;;17.81;62.59;100888.81;5312271;27;20444;-87
2024/04/12 22:36:14;;;;;;;6.80;3.80;;;;;;;17.80;62.39;100887.09;5311515;27;20344;-87
2024/04/12 22:38:41;;;;;;;6.97;3.67;;;;;;;17.81;62.45;100893.28;5283564;27;20698;-87
2024/04/12 22:41:09;;;;;;;9.63;3.45;;;;;;;17.79;62.36;100885.41;5312739;27;20511;-86
2024/04/12 22:43:36;;;;;;;6.13;4.10;;;;;;;17.77;62.44;100890.00;5312925;27;20005;-87
2024/04/12 22:46:03;;;;;;;5.97;3.78;;;;;;;17.75;62.64;100899.06;5281597;27;20464;-86
2024/04/12 22:48:30;;;;;;;10.05;3.63;;;;;;;17.71;62.75;100882.41;5283220;27;20360;-87
2024/04/12 22:50:57;;;;;;;7.30;3.88;;;;;;;17.68;62.94;100877.31;5313211;27;20448;-87
2024/04/12 22:53:26;;;;;;;5.60;3.50;;;;;;;17.65;63.26;100886.34;5283498;27;20026;-86
2024/04/12 22:55:53;;;;;;;4.70;3.58;;;;;;;17.67;63.29;100880.91;5283505;27;20001;-86
2024/04/12 22:58:21;;;;;;;5.60;3.70;;;;;;;17.66;63.39;100880.09;5282556;27;20075;-87
2024/04/12 23:00:48;;;;;;;6.97;3.78;;;;;;;17.66;63.60;100880.09;5283111;27;20033;-87
2024/04/12 23:03:15;;;;;;;7.03;3.90;;;;;;;17.67;63.57;100868.47;5283406;27;20013;-87
2024/04/12 23:05:41;;;;;;;9.05;3.30;;;;;;;17.69;63.72;100863.03;5294711;27;20013;-87
2024/04/12 23:08:12;;;;;;;6.88;3.75;;;;;;;17.71;63.67;100861.13;5311514;27;20336;-87
2024/04/12 23:10:41;;;;;;;7.90;3.85;;;;;;;17.74;63.31;100866.22;5283144;27;20479;-87
2024/04/12 23:13:11;;;;;;;4.82;3.50;;;;;;;17.75;63.43;100865.28;5283619;27;20046;-87
2024/04/12 23:15:38;;;;;;;9.52;3.30;;;;;;;17.79;63.42;100863.25;5313572;27;20431;-87
2024/04/12 23:18:05;;;;;;;7.35;3.78;;;;;;;17.81;63.39;100874.66;5283387;27;20046;-87
2024/04/12 23:20:35;;;;;;;6.15;3.10;;;;;;;17.81;63.38;100864.84;5282954;27;20444;-87
2024/04/12 23:23:02;;;;;;;5.07;3.65;;;;;;;17.82;63.13;100868.34;5282726;27;20006;-87
2024/04/12 23:25:33;;;;;;;7.68;3.63;;;;;;;17.82;62.88;100863.03;5310610;27;20037;-87
2024/04/12 23:28:00;;;;;;;3.35;2.90;;;;;;;17.82;62.75;100865.69;5269075;27;20502;-88
2024/04/12 23:30:31;;;;;;;6.53;3.65;;;;;;;17.80;63.07;100856.97;5283252;27;20001;-87
2024/04/12 23:33:08;;;;;;;;;;;;;;;;;;;;;
2024/04/12 23:35:42;;;;;;;4.55;3.65;;;;;;;17.77;63.24;100858.03;5313112;27;20030;-87
2024/04/12 23:38:26;;;;;;;3.90;3.30;;;;;;;17.75;63.02;100857.28;5283791;27;20017;-87
2024/04/12 23:40:55;;;;;;;5.80;3.65;;;;;;;17.74;62.83;100852.91;5283077;27;20022;-87
2024/04/12 23:43:23;;;;;;;5.05;3.70;;;;;;;17.72;63.17;100854.84;5282417;27;20002;-87
2024/04/12 23:45:53;;;;;;;6.38;3.90;;;;;;;17.69;63.36;100850.56;5270547;27;20006;-87
2024/04/12 23:48:42;;;;;;;4.80;3.72;;;;;;;17.68;63.31;100859.53;5285385;26;20013;-87
2024/04/12 23:51:11;;;;;;;7.85;4.40;;;;;;;17.67;63.43;100855.16;5282146;27;20006;-87
2024/04/12 23:53:45;;;;;;;6.50;3.65;;;;;;;17.66;63.52;100849.94;5282366;27;20449;-87
2024/04/12 23:56:27;;;;;;;6.15;4.05;;;;;;;17.65;63.43;100865.03;5284111;27;20440;-87
2024/04/12 23:59:05;;;;;;;5.97;4.32;;;;;;;17.61;63.51;100849.41;5282663;27;20016;-87
